Time;durP1;ratioP1;P1;durP2;ratioP2;P2;SDS_P1;SDS_P2;PMS_P1;PMS_P2;Temp;Humidity;BMP_temperature;BMP_pressure;BME280_temperature;BME280_humidity;BME280_pressure;Samples;Min_cycle;Max_cycle;Signal;HPM_P1;HPM_P2
2021/03/24 00:01:32;;;;;;;22.58;11.57;;;;;;;5.49;44.93;102259.31;5034064;28;20115;-67
2021/03/24 00:03:58;;;;;;;21.90;11.13;;;;;;;5.49;44.93;102259.31;5062127;28;20113;-67
2021/03/24 00:06:23;;;;;;;20.80;11.10;;;;;;;5.73;44.35;102258.53;5048943;28;20123;-68
2021/03/24 00:08:49;;;;;;;19.55;11.30;;;;;;;6.09;43.72;102257.72;5045522;28;20020;-70
2021/03/24 00:11:15;;;;;;;24.52;12.50;;;;;;;6.05;43.47;102256.84;5067735;28;20461;-69
2021/03/24 00:13:42;;;;;;;29.48;11.95;;;;;;;5.96;43.97;102251.66;5070491;28;20056;-69
2021/03/24 00:16:10;;;;;;;21.42;12.43;;;;;;;5.69;44.38;102254.19;5043214;28;20040;-68
2021/03/24 00:18:35;;;;;;;25.02;11.90;;;;;;;6.16;43.20;102248.22;5063360;28;20040;-66
2021/03/24 00:21:02;;;;;;;29.27;11.43;;;;;;;6.01;43.00;102249.06;5041845;28;20111;-67
2021/03/24 00:23:28;;;;;;;25.77;11.45;;;;;;;5.53;44.64;102256.75;5063035;28;20094;-69
2021/03/24 00:25:53;;;;;;;21.90;10.95;;;;;;;5.50;44.96;102251.53;5062035;28;20040;-68
2021/03/24 00:28:19;;;;;;;20.40;11.13;;;;;;;6.14;43.88;102261.19;5046103;28;20037;-68
2021/03/24 00:30:47;;;;;;;23.05;10.73;;;;;;;6.42;43.28;102253.44;5064555;28;21629;-68
2021/03/24 00:33:17;;;;;;;19.27;11.18;;;;;;;6.56;42.58;102256.88;5064009;28;20048;-67
2021/03/24 00:35:43;;;;;;;18.88;10.00;;;;;;;5.63;43.82;102257.63;5047200;28;20044;-68
2021/03/24 00:38:10;;;;;;;21.35;10.90;;;;;;;5.91;43.72;102257.72;5044844;28;20048;-68
2021/03/24 00:40:39;;;;;;;19.10;10.07;;;;;;;6.36;42.75;102259.50;5031236;28;20028;-67
2021/03/24 00:43:06;;;;;;;20.67;10.07;;;;;;;6.28;42.71;102253.44;5043950;28;20051;-67
2021/03/24 00:45:33;;;;;;;20.30;9.57;;;;;;;6.38;42.52;102256.91;5047836;28;20086;-67
2021/03/24 00:47:59;;;;;;;15.18;9.38;;;;;;;5.94;42.99;102253.38;5060203;28;20048;-66
2021/03/24 00:50:27;;;;;;;16.40;8.82;;;;;;;5.97;42.60;102244.72;5048241;28;20040;-67
2021/03/24 00:52:53;;;;;;;16.17;9.23;;;;;;;6.44;42.06;102246.50;5061424;28;20043;-68
2021/03/24 00:55:19;;;;;;;17.00;9.07;;;;;;;5.45;43.11;102250.66;5047008;28;20028;-68
2021/03/24 00:57:44;;;;;;;17.88;9.68;;;;;;;5.59;43.10;102249.00;5047312;28;20092;-67
2021/03/24 01:00:32;;;;;;;17.08;9.07;;;;;;;6.40;41.87;102231.81;5063161;28;20037;-67
2021/03/24 01:02:57;;;;;;;16.33;8.88;;;;;;;6.65;41.41;102237.81;5057724;28;20075;-68
2021/03/24 01:05:24;;;;;;;16.90;7.85;;;;;;;6.40;41.96;102240.44;5064360;28;20060;-66
2021/03/24 01:07:50;;;;;;;14.50;7.95;;;;;;;6.22;41.99;102233.50;5059649;28;20029;-68
2021/03/24 01:10:23;;;;;;;17.95;10.30;;;;;;;6.32;42.18;102228.34;5063767;28;20037;-67
2021/03/24 01:12:49;;;;;;;23.70;8.70;;;;;;;6.41;41.97;102218.78;5042467;28;20048;-67
2021/03/24 01:15:15;;;;;;;18.25;9.70;;;;;;;6.26;42.38;102229.16;5062676;28;20455;-67
2021/03/24 01:17:41;;;;;;;23.40;9.25;;;;;;;6.72;41.53;102229.16;5045575;28;20042;-68
2021/03/24 01:20:07;;;;;;;17.08;9.80;;;;;;;6.63;41.72;102224.81;5062588;28;20041;-68
2021/03/24 01:22:33;;;;;;;20.25;11.35;;;;;;;6.56;41.54;102228.31;5063826;28;20063;-69
2021/03/24 01:24:59;;;;;;;20.30;10.30;;;;;;;6.28;41.98;102230.06;5059384;28;20583;-68
2021/03/24 01:27:28;;;;;;;21.70;9.35;;;;;;;6.22;42.16;102222.25;5063066;28;20090;-69
2021/03/24 01:29:53;;;;;;;22.15;10.55;;;;;;;6.21;42.01;102221.38;5062241;28;20029;-67
2021/03/24 01:32:19;;;;;;;21.20;9.88;;;;;;;6.51;41.66;102219.66;5062364;28;20353;-68
2021/03/24 01:34:44;;;;;;;23.55;11.15;;;;;;;6.21;42.14;102217.91;5048207;28;20260;-67
2021/03/24 01:37:10;;;;;;;16.70;8.95;;;;;;;6.08;42.39;102210.16;5062385;28;20577;-68
2021/03/24 01:39:35;;;;;;;21.63;10.35;;;;;;;5.82;42.99;102219.63;5047064;28;20044;-68
2021/03/24 01:42:01;;;;;;;19.35;10.00;;;;;;;6.26;41.91;102219.66;5043143;28;20037;-70
2021/03/24 01:44:27;;;;;;;21.77;9.82;;;;;;;6.35;41.97;102217.94;5061827;28;20044;-66
2021/03/24 01:46:52;;;;;;;20.08;10.60;;;;;;;6.55;41.62;102211.00;5063527;28;20060;-68
2021/03/24 01:49:25;;;;;;;17.17;10.05;;;;;;;6.64;41.60;102210.09;5061024;28;20047;-67
2021/03/24 01:52:03;;;;;;;21.55;9.18;;;;;;;6.47;42.01;102211.00;5059001;28;20040;-67
2021/03/24 01:54:38;;;;;;;18.98;10.65;;;;;;;6.69;41.29;102216.16;5058832;28;20115;-67
2021/03/24 01:57:09;;;;;;;18.35;9.82;;;;;;;6.61;41.90;102215.31;5042908;28;20111;-68
2021/03/24 01:59:35;;;;;;;20.70;9.00;;;;;;;6.53;41.69;102201.47;5047088;28;20036;-67
2021/03/24 02:02:01;;;;;;;20.95;10.82;;;;;;;6.64;41.69;102200.59;5072702;28;20279;-67
2021/03/24 02:04:27;;;;;;;19.27;9.52;;;;;;;6.74;41.51;102196.22;5057798;28;20021;-67
2021/03/24 02:07:03;;;;;;;24.15;9.63;;;;;;;6.76;41.28;102199.69;5046020;28;20038;-66
2021/03/24 02:09:35;;;;;;;19.98;9.75;;;;;;;6.91;41.28;102202.25;5041479;28;20024;-67
2021/03/24 02:12:12;;;;;;;22.75;10.85;;;;;;;6.96;41.19;102197.03;5060887;28;20025;-67
2021/03/24 02:15:05;;;;;;;21.08;9.50;;;;;;;6.76;41.55;102191.03;5060769;28;20471;-68
2021/03/24 02:17:35;;;;;;;17.35;9.68;;;;;;;6.73;41.69;102199.72;5041829;28;20067;-68
2021/03/24 02:20:31;;;;;;;28.50;11.90;;;;;;;6.92;41.31;102195.31;5059788;28;20481;-70
2021/03/24 02:23:04;;;;;;;17.20;9.60;;;;;;;7.00;41.32;102187.47;5057060;28;20029;-69
2021/03/24 02:25:45;;;;;;;22.83;10.13;;;;;;;6.97;41.38;102198.75;5066818;28;20048;-68
2021/03/24 02:28:13;;;;;;;17.33;9.45;;;;;;;6.98;41.15;102194.44;5045137;28;20048;-68
2021/03/24 02:30:42;;;;;;;21.88;10.98;;;;;;;6.92;41.36;102195.31;5041758;28;20032;-68
2021/03/24 02:33:14;;;;;;;21.33;11.15;;;;;;;6.88;41.22;102189.25;5059524;28;20115;-67
2021/03/24 02:35:46;;;;;;;16.42;9.90;;;;;;;6.84;41.81;102192.75;5059517;28;20044;-67
2021/03/24 02:38:13;;;;;;;25.15;10.95;;;;;;;6.86;41.81;102191.00;5060251;28;20166;-68
2021/03/24 02:40:41;;;;;;;20.67;9.88;;;;;;;6.96;41.62;102197.03;5043462;28;20036;-69
2021/03/24 02:43:08;;;;;;;18.42;9.73;;;;;;;6.97;41.79;102192.69;5061181;28;20045;-67
2021/03/24 02:45:38;;;;;;;19.02;11.15;;;;;;;6.92;42.10;102187.50;5061327;28;20032;-66
2021/03/24 02:48:08;;;;;;;21.48;9.85;;;;;;;6.95;41.90;102189.22;5060516;28;20491;-69
2021/03/24 02:50:34;;;;;;;20.88;10.13;;;;;;;6.75;42.50;102182.34;5062878;28;20048;-67
2021/03/24 02:53:01;;;;;;;24.00;9.50;;;;;;;6.86;41.94;102180.63;5042060;28;20175;-66
2021/03/24 02:55:29;;;;;;;21.70;11.13;;;;;;;6.98;42.05;102189.22;5059456;28;20033;-70
2021/03/24 02:57:56;;;;;;;20.45;10.63;;;;;;;6.84;41.96;102177.16;5044315;28;20054;-69
2021/03/24 03:00:23;;;;;;;19.67;10.20;;;;;;;6.90;42.09;102184.91;5044100;28;20104;-70
2021/03/24 03:02:57;;;;;;;19.23;10.63;;;;;;;6.97;42.28;102179.69;5057816;28;20036;-67
2021/03/24 03:05:30;;;;;;;21.27;11.57;;;;;;;6.97;42.01;102184.88;5045258;28;20048;-68
2021/03/24 03:08:12;;;;;;;17.85;9.40;;;;;;;7.00;41.94;102188.34;5027055;28;20123;-67
2021/03/24 03:10:49;;;;;;;25.60;10.13;;;;;;;7.00;41.93;102177.94;5042322;28;20060;-69
2021/03/24 03:13:35;;;;;;;24.42;11.30;;;;;;;6.75;42.56;102182.34;5061344;28;20512;-68
2021/03/24 03:16:09;;;;;;;22.02;10.88;;;;;;;6.87;42.61;102184.06;5027902;28;20492;-69
2021/03/24 03:18:48;;;;;;;19.30;10.52;;;;;;;6.97;42.29;102179.69;5056977;28;20484;-67
2021/03/24 03:21:17;;;;;;;22.98;11.55;;;;;;;7.00;42.40;102184.88;5061880;28;20032;-68
2021/03/24 03:23:45;;;;;;;20.30;10.65;;;;;;;6.62;42.62;102178.06;5058259;28;20036;-67
2021/03/24 03:26:17;;;;;;;21.98;10.48;;;;;;;6.67;43.02;102173.75;5046281;28;20036;-69
2021/03/24 03:28:45;;;;;;;16.42;9.27;;;;;;;6.89;42.45;102183.19;5062029;28;20107;-68
2021/03/24 03:31:15;;;;;;;21.25;11.50;;;;;;;6.79;42.30;102171.09;5046357;28;20037;-68
2021/03/24 03:33:43;;;;;;;26.33;12.82;;;;;;;6.85;42.47;102172.81;5026745;28;20041;-67
2021/03/24 03:36:12;;;;;;;19.40;11.85;;;;;;;6.84;42.13;102174.56;5059904;28;20056;-66
2021/03/24 03:38:38;;;;;;;19.80;11.55;;;;;;;6.87;42.07;102174.53;5043547;28;20036;-67
2021/03/24 03:41:06;;;;;;;24.02;11.40;;;;;;;6.68;42.80;102178.06;5045665;28;20047;-68
2021/03/24 03:43:33;;;;;;;24.40;12.00;;;;;;;6.73;43.43;102173.72;5044226;28;20476;-70
2021/03/24 03:46:00;;;;;;;22.70;11.00;;;;;;;6.64;43.28;102171.13;5057646;28;20086;-69
2021/03/24 03:48:26;;;;;;;27.67;13.25;;;;;;;6.80;43.02;102170.22;5043805;28;20049;-69
2021/03/24 03:50:57;;;;;;;26.10;14.35;;;;;;;6.73;43.29;102167.63;5049629;28;20078;-70
2021/03/24 03:53:36;;;;;;;27.17;14.25;;;;;;;6.64;43.88;102169.41;5064114;28;20149;-69
2021/03/24 03:56:04;;;;;;;33.13;15.02;;;;;;;6.45;44.56;102168.59;5045921;28;20040;-68
2021/03/24 03:58:59;;;;;;;28.35;14.68;;;;;;;6.41;44.93;102161.66;5047209;28;20041;-69
2021/03/24 04:01:30;;;;;;;30.63;14.18;;;;;;;6.23;45.56;102161.66;5064494;28;20058;-68
2021/03/24 04:04:06;;;;;;;32.08;14.40;;;;;;;6.52;45.17;102173.78;5049205;28;20036;-68
2021/03/24 04:06:38;;;;;;;37.65;17.70;;;;;;;6.20;46.02;102165.13;5061123;28;20036;-68
2021/03/24 04:09:06;;;;;;;32.53;15.68;;;;;;;5.67;47.55;102159.06;5060136;28;20024;-69
2021/03/24 04:11:39;;;;;;;35.15;16.25;;;;;;;6.36;46.04;102168.59;5027944;28;20037;-67
2021/03/24 04:14:06;;;;;;;33.35;16.70;;;;;;;6.08;46.69;102160.81;5048308;28;20583;-70
2021/03/24 04:16:32;;;;;;;39.28;16.88;;;;;;;6.15;46.49;102160.78;5047298;28;20055;-68
2021/03/24 04:19:04;;;;;;;40.00;16.58;;;;;;;6.14;46.87;102156.50;5062496;28;20036;-68
2021/03/24 04:21:31;;;;;;;38.38;17.17;;;;;;;6.08;46.98;102157.34;5046887;28;20036;-67
2021/03/24 04:24:01;;;;;;;39.50;16.38;;;;;;;5.73;48.14;102157.38;5063531;28;20040;-68
2021/03/24 04:26:36;;;;;;;39.60;17.98;;;;;;;6.01;47.79;102164.25;5045752;28;20031;-68
2021/03/24 04:29:09;;;;;;;44.80;19.08;;;;;;;6.14;47.46;102159.09;5044436;28;20059;-68
2021/03/24 04:31:38;;;;;;;42.17;19.17;;;;;;;5.86;48.69;102164.28;5062613;28;20029;-69
2021/03/24 04:34:04;;;;;;;43.80;19.60;;;;;;;6.05;48.44;102158.22;5044961;28;20035;-68
2021/03/24 04:36:37;;;;;;;42.72;20.30;;;;;;;6.15;47.81;102160.78;5063780;28;20695;-67
2021/03/24 04:39:09;;;;;;;43.50;19.00;;;;;;;6.06;48.08;102159.97;5046418;28;20120;-69
2021/03/24 04:41:39;;;;;;;54.38;21.65;;;;;;;6.27;47.75;102163.41;5060823;28;20122;-68
2021/03/24 04:44:13;;;;;;;49.15;19.90;;;;;;;5.82;49.29;102155.63;5040978;28;20151;-68
2021/03/24 04:46:42;;;;;;;49.17;22.38;;;;;;;5.96;48.99;102158.22;5067026;28;20044;-69
2021/03/24 04:49:21;;;;;;;43.53;19.58;;;;;;;5.92;48.82;102164.28;5049012;28;20031;-68
2021/03/24 04:51:47;;;;;;;39.25;19.70;;;;;;;6.34;47.92;102162.53;5061881;28;20128;-69
2021/03/24 04:54:18;;;;;;;50.55;21.92;;;;;;;6.09;48.47;102159.94;5064782;28;20669;-68
2021/03/24 04:56:50;;;;;;;42.80;20.15;;;;;;;6.40;47.63;102148.69;5062549;28;20037;-68
2021/03/24 04:59:19;;;;;;;46.40;19.00;;;;;;;6.27;47.76;102140.03;5063186;28;20041;-68
2021/03/24 05:01:50;;;;;;;45.15;19.83;;;;;;;6.13;47.93;102147.84;5059427;28;21410;-68
2021/03/24 05:04:30;;;;;;;45.20;18.88;;;;;;;6.37;47.60;102149.53;5044391;28;20063;-68
2021/03/24 05:07:05;;;;;;;39.55;19.42;;;;;;;5.96;48.64;102155.63;5068915;28;20051;-68
2021/03/24 05:09:31;;;;;;;47.20;19.00;;;;;;;6.19;47.93;102154.75;5047405;28;20037;-68
2021/03/24 05:12:05;;;;;;;48.47;21.65;;;;;;;6.15;48.25;102151.31;5069391;28;20039;-68
2021/03/24 05:14:42;;;;;;;44.78;21.83;;;;;;;5.95;49.23;102147.81;5062283;28;20032;-69
2021/03/24 05:17:14;;;;;;;48.72;21.15;;;;;;;5.69;49.87;102148.69;5046977;28;20035;-68
2021/03/24 05:19:39;;;;;;;;;;;;;;;6.24;48.78;102161.66;5031742;28;20495;-69
2021/03/24 05:22:26;;;;;;;48.40;20.88;;;;;;;6.08;48.71;102166.00;5044670;28;20018;-67
2021/03/24 05:25:02;;;;;;;56.42;22.60;;;;;;;5.50;49.73;102158.16;5046343;28;20559;-69
2021/03/24 05:27:36;;;;;;;56.20;24.98;;;;;;;5.11;51.48;102159.81;5041526;28;20502;-69
2021/03/24 05:30:07;;;;;;;56.72;25.27;;;;;;;5.85;49.52;102152.16;5045228;28;20379;-69
2021/03/24 05:32:46;;;;;;;60.38;26.05;;;;;;;5.69;50.06;102161.66;5059740;28;20089;-67
2021/03/24 05:36:14;;;;;;;61.38;24.92;;;;;;;5.88;49.80;102155.63;5047726;28;20533;-67
2021/03/24 05:38:52;;;;;;;60.10;25.48;;;;;;;5.85;49.47;102159.94;4962821;28;20114;-68
2021/03/24 05:41:36;;;;;;;56.08;23.77;;;;;;;5.55;50.11;102158.22;4947876;28;20094;-69
2021/03/24 05:44:23;;;;;;;60.83;25.45;;;;;;;6.06;48.70;102159.06;4997443;28;20494;-70
2021/03/24 05:47:17;;;;;;;57.33;24.25;;;;;;;5.84;49.22;102166.03;5061846;28;20111;-68
2021/03/24 05:50:04;;;;;;;61.13;25.13;;;;;;;6.04;48.80;102151.31;5026134;28;20025;-69
2021/03/24 05:52:55;;;;;;;55.42;24.95;;;;;;;5.78;49.67;102146.09;5042203;28;20043;-68
2021/03/24 05:56:12;;;;;;;59.88;25.48;;;;;;;5.76;49.34;102149.56;5047690;28;20025;-67
2021/03/24 05:58:55;;;;;;;65.00;25.65;;;;;;;5.98;49.04;102146.09;5038344;28;20053;-67
2021/03/24 06:01:29;;;;;;;59.55;25.67;;;;;;;6.01;48.80;102142.66;5044900;28;20048;-68
2021/03/24 06:04:18;;;;;;;66.10;26.27;;;;;;;5.93;49.33;102142.66;5058476;28;20032;-66
2021/03/24 06:06:49;;;;;;;61.47;25.38;;;;;;;5.37;50.48;102153.81;5006699;28;20042;-68
2021/03/24 06:09:33;;;;;;;69.00;24.60;;;;;;;5.71;49.56;102152.16;5060860;28;20025;-69
2021/03/24 06:12:05;;;;;;;57.60;24.35;;;;;;;5.44;50.04;102158.19;5055750;28;20475;-67
2021/03/24 06:14:33;;;;;;;65.28;27.10;;;;;;;5.27;50.77;102154.69;5057929;28;20024;-69
2021/03/24 06:17:09;;;;;;;59.85;24.80;;;;;;;5.07;51.38;102158.06;5040850;28;20677;-68
2021/03/24 06:19:52;;;;;;;60.88;26.23;;;;;;;5.37;50.55;102149.53;5046019;28;20033;-68
2021/03/24 06:22:50;;;;;;;60.33;26.60;;;;;;;5.77;49.88;102148.69;5061102;28;20387;-68
2021/03/24 06:25:41;;;;;;;62.38;27.15;;;;;;;5.65;50.10;102142.63;5059415;28;20591;-68
2021/03/24 06:28:12;;;;;;;68.68;28.67;;;;;;;5.77;49.79;102148.69;5057751;28;20093;-68
2021/03/24 06:30:59;;;;;;;60.27;27.67;;;;;;;5.09;51.46;102161.53;5045198;28;20445;-68
2021/03/24 06:33:49;;;;;;;68.05;27.10;;;;;;;5.94;49.58;102164.28;5044597;28;20033;-68
2021/03/24 06:36:34;;;;;;;59.47;26.00;;;;;;;6.24;48.79;102164.28;5061471;28;20618;-68
2021/03/24 06:39:39;;;;;;;58.65;27.75;;;;;;;6.14;49.24;102161.69;5044460;28;20056;-69
2021/03/24 06:42:32;;;;;;;61.85;25.50;;;;;;;6.17;48.82;102159.06;5034184;28;20059;-69
2021/03/24 06:45:19;;;;;;;61.00;24.70;;;;;;;5.80;49.75;102162.53;5061099;28;21415;-68
2021/03/24 06:48:03;;;;;;;69.63;28.33;;;;;;;5.49;50.51;102166.81;5044008;28;20052;-67
2021/03/24 06:51:04;;;;;;;63.85;28.23;;;;;;;5.42;51.11;102162.50;5049539;28;20041;-67
2021/03/24 06:54:01;;;;;;;59.03;25.45;;;;;;;5.80;49.51;102161.69;5064305;28;20395;-66
2021/03/24 06:56:51;;;;;;;59.72;26.52;;;;;;;6.06;48.58;102149.56;5044555;28;20028;-67
2021/03/24 06:59:29;;;;;;;70.13;28.98;;;;;;;5.04;51.86;102164.09;5046647;28;20115;-66
2021/03/24 07:02:03;;;;;;;79.57;29.80;;;;;;;6.18;48.72;102155.63;5040554;28;20433;-66
2021/03/24 07:04:50;;;;;;;61.85;25.85;;;;;;;6.39;48.47;102152.16;5039007;28;20036;-68
2021/03/24 07:07:34;;;;;;;68.93;27.30;;;;;;;6.43;48.32;102162.53;5028555;28;20040;-67
2021/03/24 07:10:14;;;;;;;64.97;26.65;;;;;;;6.34;48.16;102152.16;5023701;28;20119;-68
2021/03/24 07:13:08;;;;;;;68.63;29.40;;;;;;;7.10;46.48;102152.78;5056671;28;20042;-68
2021/03/24 07:16:25;;;;;;;70.80;29.42;;;;;;;7.29;46.30;102151.81;5042737;28;20131;-67
2021/03/24 07:19:15;;;;;;;64.20;29.00;;;;;;;6.94;46.61;102157.19;5034414;28;21004;-67
2021/03/24 07:21:59;;;;;;;61.30;27.60;;;;;;;7.47;46.16;102158.63;5045001;28;20041;-68
2021/03/24 07:24:49;;;;;;;69.75;29.38;;;;;;;7.57;46.06;102142.97;5049522;28;20041;-68
2021/03/24 07:27:39;;;;;;;69.75;28.77;;;;;;;7.38;45.99;102150.00;5064915;28;20036;-68
2021/03/24 07:30:27;;;;;;;68.97;30.92;;;;;;;7.89;44.77;102147.94;5063607;28;20044;-68
2021/03/24 07:33:34;;;;;;;67.40;30.92;;;;;;;7.72;45.06;102154.16;5063595;28;20024;-69
2021/03/24 07:36:18;;;;;;;75.72;32.58;;;;;;;7.95;44.52;102151.34;5042107;28;20788;-68
2021/03/24 07:38:52;;;;;;;71.78;31.88;;;;;;;7.91;44.57;102148.78;5063064;28;20389;-69
2021/03/24 07:42:08;;;;;;;66.75;30.85;;;;;;;9.13;41.76;102150.97;5074357;28;20036;-67
2021/03/24 07:44:55;;;;;;;72.82;31.77;;;;;;;11.09;38.10;102149.31;5063225;28;20114;-68
2021/03/24 07:47:44;;;;;;;74.72;31.30;;;;;;;10.24;38.74;102147.50;5073192;28;20028;-68
2021/03/24 07:50:21;;;;;;;70.10;30.67;;;;;;;9.60;39.92;102146.78;5056841;28;20061;-68
2021/03/24 07:53:11;;;;;;;70.72;31.42;;;;;;;9.36;41.22;102151.47;5059836;28;20149;-69
2021/03/24 07:55:41;;;;;;;76.28;30.83;;;;;;;9.24;41.32;102138.63;5076120;28;20054;-68
2021/03/24 07:58:25;;;;;;;73.57;32.13;;;;;;;8.94;43.27;102142.50;5047407;28;20115;-69
2021/03/24 08:00:54;;;;;;;67.35;31.58;;;;;;;10.10;40.05;102137.31;5048834;28;20040;-70
2021/03/24 08:03:28;;;;;;;59.50;30.33;;;;;;;11.95;35.58;102133.34;5064867;28;20127;-69
2021/03/24 08:06:15;;;;;;;60.67;30.95;;;;;;;11.95;37.06;102135.94;5069095;28;20044;-67
2021/03/24 08:08:50;;;;;;;64.57;29.73;;;;;;;11.92;36.01;102144.75;5073439;28;20550;-67
2021/03/24 08:11:41;;;;;;;66.70;31.45;;;;;;;13.41;33.86;102145.78;5056462;28;20040;-69
2021/03/24 08:14:26;;;;;;;67.53;30.70;;;;;;;10.57;38.04;102146.00;5046502;28;20045;-67
2021/03/24 08:17:29;;;;;;;71.30;29.02;;;;;;;13.43;33.14;102135.22;5063943;28;20067;-67
2021/03/24 08:20:12;;;;;;;68.35;30.83;;;;;;;13.67;32.51;102123.97;5062584;28;20559;-68
2021/03/24 08:22:55;;;;;;;68.60;30.45;;;;;;;11.68;36.00;102127.84;5046053;28;20036;-68
2021/03/24 08:25:39;;;;;;;62.50;31.48;;;;;;;13.86;32.91;102134.69;5075960;28;20106;-70
2021/03/24 08:28:19;;;;;;;60.33;29.40;;;;;;;14.04;31.92;102133.22;5062979;28;20582;-67
2021/03/24 08:31:18;;;;;;;59.08;28.05;;;;;;;14.91;30.69;102142.34;5047358;28;20770;-68
2021/03/24 08:33:54;;;;;;;62.30;28.33;;;;;;;14.98;30.55;102132.44;5060996;28;20055;-68
2021/03/24 08:36:26;;;;;;;61.42;29.25;;;;;;;14.29;30.37;102127.94;5062293;28;21123;-69
2021/03/24 08:39:24;;;;;;;60.83;29.25;;;;;;;14.89;30.32;102122.28;5058222;28;20543;-68
2021/03/24 08:41:58;;;;;;;59.20;27.38;;;;;;;15.91;29.19;102125.19;5031800;28;20048;-69
2021/03/24 08:44:30;;;;;;;59.35;30.35;;;;;;;15.52;29.34;102123.28;5058411;28;20144;-69
2021/03/24 08:47:12;;;;;;;53.97;26.83;;;;;;;14.86;30.13;102128.50;5061876;28;20067;-67
2021/03/24 08:49:41;;;;;;;56.05;28.45;;;;;;;13.80;31.29;102128.78;5044262;28;20032;-68
2021/03/24 08:52:53;;;;;;;61.47;28.63;;;;;;;13.87;31.59;102115.38;5060822;28;20040;-69
2021/03/24 08:55:35;;;;;;;64.72;30.23;;;;;;;12.66;34.27;102121.78;5058714;28;20044;-67
2021/03/24 08:58:12;;;;;;;;;;;;;;;14.94;30.86;102122.94;5073124;28;20078;-67
2021/03/24 09:00:56;;;;;;;60.03;28.45;;;;;;;14.05;31.38;102134.06;5042867;28;20161;-68
2021/03/24 09:03:22;;;;;;;55.83;27.85;;;;;;;11.70;35.14;102123.44;5060897;28;20032;-69
2021/03/24 09:06:12;;;;;;;56.35;25.55;;;;;;;12.57;34.56;102117.66;5060882;28;20048;-69
2021/03/24 09:08:44;;;;;;;61.15;27.88;;;;;;;12.86;34.23;102118.59;5044790;28;20032;-68
2021/03/24 09:11:38;;;;;;;59.13;26.45;;;;;;;11.83;34.70;102117.03;5057989;28;20036;-69
2021/03/24 09:14:24;;;;;;;53.08;24.95;;;;;;;11.77;34.62;102109.31;5037906;28;20449;-68
2021/03/24 09:17:22;;;;;;;54.60;26.60;;;;;;;12.06;35.04;102115.56;5062447;28;20064;-67
2021/03/24 09:20:26;;;;;;;57.25;24.15;;;;;;;12.88;33.05;102116.81;5028091;28;20826;-70
2021/03/24 09:23:03;;;;;;;52.70;25.02;;;;;;;12.58;33.28;102114.16;5062321;28;20056;-67
2021/03/24 09:25:55;;;;;;;50.47;25.25;;;;;;;12.40;32.90;102109.41;5057355;28;20094;-67
2021/03/24 09:28:32;;;;;;;52.13;24.00;;;;;;;12.64;33.47;102119.19;5044833;28;20040;-68
2021/03/24 09:31:10;;;;;;;55.20;23.27;;;;;;;12.61;32.48;102102.72;5057645;28;20047;-69
2021/03/24 09:33:49;;;;;;;52.03;23.05;;;;;;;12.90;33.35;102096.63;5056395;28;20029;-67
2021/03/24 09:36:27;;;;;;;54.50;24.98;;;;;;;12.52;33.72;102106.44;5045184;28;20044;-68
2021/03/24 09:38:54;;;;;;;50.28;25.88;;;;;;;12.50;33.74;102106.47;5045998;28;20043;-67
2021/03/24 09:41:25;;;;;;;56.78;25.48;;;;;;;13.51;31.94;102101.69;5046508;28;20044;-68
2021/03/24 09:44:09;;;;;;;54.65;26.00;;;;;;;12.27;34.48;102103.66;5043973;28;20024;-67
2021/03/24 09:46:53;;;;;;;55.03;23.60;;;;;;;13.00;33.47;102100.66;5038333;28;20064;-68
2021/03/24 09:49:24;;;;;;;46.00;23.73;;;;;;;13.21;32.46;102101.78;5062767;28;20623;-69
2021/03/24 09:52:13;;;;;;;53.58;23.95;;;;;;;12.20;33.47;102092.50;5060404;28;20683;-68
2021/03/24 09:54:55;;;;;;;59.45;24.88;;;;;;;11.56;35.48;102078.44;5059737;28;20451;-69
2021/03/24 09:57:28;;;;;;;47.80;24.17;;;;;;;12.91;33.73;102085.22;5046065;28;20043;-69
2021/03/24 10:00:09;;;;;;;49.08;23.02;;;;;;;12.94;33.33;102093.00;5029212;28;20036;-69
2021/03/24 10:02:48;;;;;;;47.15;22.30;;;;;;;13.84;31.79;102097.09;5043096;28;20066;-68
2021/03/24 10:05:21;;;;;;;45.63;21.00;;;;;;;14.84;29.96;102092.66;5059383;28;20387;-68
2021/03/24 10:07:59;;;;;;;47.55;23.67;;;;;;;12.54;33.20;102101.16;5061805;28;20028;-68
2021/03/24 10:10:30;;;;;;;43.50;21.15;;;;;;;12.60;32.65;102096.59;5059438;28;20194;-68
2021/03/24 10:13:04;;;;;;;43.85;21.92;;;;;;;13.11;31.98;102101.19;5042592;28;20074;-69
2021/03/24 10:15:50;;;;;;;45.08;21.20;;;;;;;13.22;31.49;102085.09;5059309;28;20029;-67
2021/03/24 10:18:28;;;;;;;44.30;22.15;;;;;;;13.27;31.46;102087.59;5040823;28;20603;-67
2021/03/24 10:21:02;;;;;;;46.17;23.23;;;;;;;13.48;31.58;102086.91;5060589;28;20040;-68
2021/03/24 10:23:37;;;;;;;45.03;22.92;;;;;;;12.92;33.02;102086.09;5026458;28;20586;-68
2021/03/24 10:26:12;;;;;;;46.92;22.92;;;;;;;12.79;33.20;102082.97;5041883;28;20122;-68
2021/03/24 10:28:50;;;;;;;44.72;23.13;;;;;;;12.22;33.84;102085.44;5026769;28;20055;-68
2021/03/24 10:31:35;;;;;;;41.00;22.02;;;;;;;12.72;35.26;102071.81;5044364;28;20044;-68
2021/03/24 10:34:12;;;;;;;42.35;22.23;;;;;;;13.20;31.96;102080.81;5056615;28;20036;-70
2021/03/24 10:36:55;;;;;;;46.20;23.52;;;;;;;13.10;33.11;102091.63;5041979;28;20036;-70
2021/03/24 10:39:33;;;;;;;49.70;24.00;;;;;;;12.06;33.87;102084.13;5058214;28;20036;-69
2021/03/24 10:42:17;;;;;;;49.67;23.23;;;;;;;13.40;31.87;102083.66;5039470;28;20878;-68
2021/03/24 10:44:58;;;;;;;50.08;24.33;;;;;;;14.31;31.39;102073.53;5024727;28;20043;-67
2021/03/24 10:48:05;;;;;;;47.60;24.13;;;;;;;13.61;31.59;102082.13;5060480;28;20033;-69
2021/03/24 10:50:36;;;;;;;46.35;22.10;;;;;;;13.09;32.56;102081.16;5061375;28;20028;-68
2021/03/24 10:53:30;;;;;;;49.13;23.50;;;;;;;13.58;31.77;102082.22;5040410;28;20115;-68
2021/03/24 10:56:12;;;;;;;50.70;22.10;;;;;;;12.19;33.88;102077.66;5039400;28;20132;-67
2021/03/24 10:58:54;;;;;;;50.10;23.95;;;;;;;14.07;31.42;102069.16;5056507;28;20571;-69
2021/03/24 11:01:40;;;;;;;51.63;24.77;;;;;;;13.64;31.62;102068.03;5062052;28;20044;-68
2021/03/24 11:04:25;;;;;;;49.90;24.33;;;;;;;13.41;32.45;102071.41;5046400;28;20052;-67
2021/03/24 11:07:04;;;;;;;54.72;25.92;;;;;;;13.33;32.92;102058.50;5062335;28;20056;-68
2021/03/24 11:09:48;;;;;;;45.78;25.52;;;;;;;13.18;32.84;102064.25;5045942;28;20032;-69
2021/03/24 11:12:20;;;;;;;53.85;26.27;;;;;;;11.70;35.61;102059.75;5059537;28;20094;-68
2021/03/24 11:15:13;;;;;;;56.28;24.20;;;;;;;11.83;35.33;102056.78;5057169;28;20044;-68
2021/03/24 11:17:41;;;;;;;61.40;25.98;;;;;;;12.90;34.30;102062.50;5042945;28;20086;-67
2021/03/24 11:20:11;;;;;;;49.50;26.45;;;;;;;13.41;32.35;102053.03;5061559;28;20124;-67
2021/03/24 11:22:58;;;;;;;54.28;26.23;;;;;;;13.53;32.57;102052.59;5047296;28;20032;-67
2021/03/24 11:25:35;;;;;;;52.50;25.50;;;;;;;11.63;35.05;102056.41;5031134;28;20044;-67
2021/03/24 11:28:07;;;;;;;53.85;26.38;;;;;;;14.01;32.92;102045.72;5060128;28;20267;-68
2021/03/24 11:30:43;;;;;;;63.15;25.85;;;;;;;13.73;32.68;102044.06;5056421;28;20021;-68
2021/03/24 11:33:33;;;;;;;57.30;26.05;;;;;;;13.09;33.37;102053.16;5047157;28;20097;-68
2021/03/24 11:36:09;;;;;;;57.30;28.85;;;;;;;13.69;32.19;102048.56;5072393;28;20032;-69
2021/03/24 11:38:48;;;;;;;51.10;25.88;;;;;;;12.51;34.24;102049.66;5059416;28;20032;-67
2021/03/24 11:41:19;;;;;;;47.70;25.27;;;;;;;13.82;32.47;102043.75;5061934;28;20032;-67
2021/03/24 11:43:56;;;;;;;46.28;23.75;;;;;;;13.58;32.29;102040.19;5060850;28;20033;-68
2021/03/24 11:46:28;;;;;;;49.13;23.90;;;;;;;13.19;33.08;102047.63;5060466;28;20041;-67
2021/03/24 11:49:13;;;;;;;;;;;;;;;12.90;33.70;102033.66;5060673;28;20440;-68
2021/03/24 11:52:03;;;;;;;51.95;25.20;;;;;;;12.46;34.49;102036.66;5061471;28;19974;-68
2021/03/24 11:54:35;;;;;;;52.80;24.42;;;;;;;13.31;33.42;102039.31;5059232;28;20040;-70
2021/03/24 11:57:10;;;;;;;47.97;24.92;;;;;;;13.69;32.52;102042.44;5040960;28;20063;-68
2021/03/24 11:59:36;;;;;;;51.90;25.20;;;;;;;12.69;34.39;102040.41;5045036;28;20462;-66
2021/03/24 12:02:22;;;;;;;49.20;25.73;;;;;;;13.01;34.30;102039.41;5057634;28;20504;-67